CheckWX is a tool to help pilots better visualize weather data.  It is not intended as a substitute for an official pre-flight weather briefing.

12:32:21 UTC

KAVX METAR
Catalina Airport
Avalon, California, USA
Current

41 mins ago

KAVX 131151Z AUTO 00000KT 10SM CLR 17/07 A3016 RMK AO2 SLP196 T01670072 10189 20156 58002
Observed
Dec-13 @ 11:51 UTC
Visibility
10 SM
Flight Rules
VFR
Cloud Levels
  • Clear skies
Temperature
17°C / 63°F
Dewpoint
C / 45°F
Humidity
52%
Altimeter
30.16" Hg
Pressure
1021.32 hPa
Previous

2 hours ago

KAVX 131051Z AUTO 32003KT 10SM CLR 17/09 A3017 RMK AO2 SLP199 T01720089
Observed
Dec-13 @ 10:51 UTC
Wind
  • 320° at 3 KTS
Visibility
10 SM
Flight Rules
VFR
Cloud Levels
  • Clear skies
Temperature
17°C / 63°F
Dewpoint
C / 48°F
Humidity
59%
Altimeter
30.17" Hg
Pressure
1021.72 hPa
Previous

3 hours ago

KAVX 130951Z AUTO 30004KT 10SM CLR 17/07 A3018 RMK AO2 SLP205 T01670072
Observed
Dec-13 @ 09:51 UTC
Wind
  • 300° at 4 KTS
Visibility
10 SM
Flight Rules
VFR
Cloud Levels
  • Clear skies
Temperature
17°C / 63°F
Dewpoint
C / 45°F
Humidity
52%
Altimeter
30.18" Hg
Pressure
1022.02 hPa